Time;durP1;ratioP1;P1;durP2;ratioP2;P2;SDS_P1;SDS_P2;PMS_P1;PMS_P2;Temp;Humidity;BMP_temperature;BMP_pressure;BME280_temperature;BME280_humidity;BME280_pressure;Samples;Min_cycle;Max_cycle;Signal;HPM_P1;HPM_P2
2020/12/04 00:01:51;;;;;;;21.65;10.55;;;;;;;1.64;79.25;98960.75;6175922;28;20054;-65
2020/12/04 00:04:52;;;;;;;23.17;10.38;;;;;;;1.66;79.11;98960.66;6175723;28;20061;-65
2020/12/04 00:07:53;;;;;;;26.48;10.68;;;;;;;1.65;78.03;98957.22;6175577;28;20047;-65
2020/12/04 00:10:54;;;;;;;24.20;10.70;;;;;;;1.75;78.50;98955.91;6174439;28;20055;-65
2020/12/04 00:13:54;;;;;;;21.67;10.05;;;;;;;1.70;79.32;98951.84;6175678;28;20051;-64
2020/12/04 00:16:56;;;;;;;25.02;10.93;;;;;;;1.69;79.01;98955.34;6175196;28;20047;-65
2020/12/04 00:19:57;;;;;;;24.15;11.00;;;;;;;1.68;79.24;98953.66;6175083;28;20419;-65
2020/12/04 00:22:58;;;;;;;20.67;9.38;;;;;;;1.77;80.05;98940.28;6174917;28;20174;-65
2020/12/04 00:26:01;;;;;;;25.98;10.13;;;;;;;1.79;79.66;98928.13;6175122;28;20043;-64
2020/12/04 00:29:02;;;;;;;22.30;10.18;;;;;;;1.81;79.55;98915.09;6175057;28;20055;-65
2020/12/04 00:32:04;;;;;;;23.02;11.27;;;;;;;1.79;78.98;98922.94;6175016;28;20046;-65
2020/12/04 00:35:05;;;;;;;24.25;9.52;;;;;;;1.86;79.19;98916.53;6175149;28;20047;-65
2020/12/04 00:38:05;;;;;;;17.55;9.32;;;;;;;1.79;78.62;98915.16;6174642;28;20046;-65
2020/12/04 00:41:06;;;;;;;22.83;9.63;;;;;;;1.73;78.96;98905.94;6174788;28;20105;-64
2020/12/04 00:44:07;;;;;;;20.98;9.65;;;;;;;1.69;78.43;98893.22;6174591;28;20431;-65
2020/12/04 00:47:09;;;;;;;21.50;9.68;;;;;;;1.68;77.18;98887.19;6174792;28;20043;-65
2020/12/04 00:50:10;;;;;;;23.05;10.00;;;;;;;1.57;78.11;98893.78;6174134;28;20055;-64
2020/12/04 00:53:11;;;;;;;26.50;10.93;;;;;;;1.64;78.20;98885.66;6174835;28;20058;-64
2020/12/04 00:56:11;;;;;;;26.88;11.45;;;;;;;1.73;77.81;98880.06;6174249;28;20145;-64
2020/12/04 00:59:12;;;;;;;20.67;9.77;;;;;;;1.63;77.56;98883.97;6174394;28;20050;-65
2020/12/04 01:02:14;;;;;;;21.08;10.35;;;;;;;1.55;78.42;98878.31;6174585;28;20580;-64
2020/12/04 01:05:15;;;;;;;22.58;10.05;;;;;;;1.66;78.06;98872.63;6174435;28;20097;-64
2020/12/04 01:08:16;;;;;;;25.83;10.00;;;;;;;1.68;77.62;98863.03;6174005;28;20081;-65
2020/12/04 01:11:19;;;;;;;23.10;10.75;;;;;;;1.59;77.92;98859.16;6173890;28;20057;-64
2020/12/04 01:14:20;;;;;;;22.60;10.63;;;;;;;1.69;76.86;98864.72;6174224;28;20054;-64
2020/12/04 01:17:21;;;;;;;22.65;9.98;;;;;;;1.70;75.61;98854.28;6173894;28;20047;-64
2020/12/04 01:20:22;;;;;;;22.02;10.27;;;;;;;1.64;78.21;98838.22;6173270;28;20077;-65
2020/12/04 01:23:23;;;;;;;22.60;9.70;;;;;;;1.68;76.43;98835.41;6173578;28;20051;-65
2020/12/04 01:26:24;;;;;;;23.63;10.68;;;;;;;1.64;77.67;98839.06;6173882;28;20094;-64
2020/12/04 01:29:25;;;;;;;22.60;10.85;;;;;;;1.65;78.31;98832.13;6173488;28;20515;-64
2020/12/04 01:32:26;;;;;;;19.90;9.40;;;;;;;1.76;76.52;98822.06;6173677;28;20062;-65
2020/12/04 01:35:27;;;;;;;23.38;10.73;;;;;;;1.65;77.54;98819.19;6173911;28;20054;-64
2020/12/04 01:38:28;;;;;;;23.58;10.60;;;;;;;1.62;76.96;98814.16;6173459;28;20074;-65
2020/12/04 01:41:32;;;;;;;22.35;10.18;;;;;;;1.69;76.80;98810.34;6173590;28;20424;-65
2020/12/04 01:44:33;;;;;;;21.95;10.25;;;;;;;1.65;77.39;98809.66;6173536;28;20061;-64
2020/12/04 01:47:35;;;;;;;23.38;10.60;;;;;;;1.79;77.01;98801.22;6173353;28;20047;-65
2020/12/04 01:50:36;;;;;;;23.65;10.50;;;;;;;1.85;75.94;98787.13;6172979;28;20058;-64
2020/12/04 01:53:37;;;;;;;26.85;10.80;;;;;;;1.83;76.74;98794.16;6173675;28;20065;-65
2020/12/04 01:56:38;;;;;;;21.08;9.50;;;;;;;1.86;76.45;98791.38;6173101;28;20055;-65
2020/12/04 01:59:39;;;;;;;22.08;10.38;;;;;;;1.78;77.57;98787.44;6173228;28;20058;-65
2020/12/04 02:02:43;;;;;;;23.00;10.45;;;;;;;1.76;76.83;98775.47;6173428;28;20247;-64
2020/12/04 02:05:53;;;;;;;23.60;11.32;;;;;;;1.75;75.25;98779.81;6173355;28;20051;-65
2020/12/04 02:09:02;;;;;;;22.38;10.93;;;;;;;1.69;76.54;98764.59;6173001;28;20051;-65
2020/12/04 02:12:05;;;;;;;23.83;10.90;;;;;;;1.66;77.35;98766.50;6173359;28;20058;-64
2020/12/04 02:15:06;;;;;;;22.15;10.73;;;;;;;1.69;76.65;98762.00;6173035;28;20416;-64
2020/12/04 02:18:08;;;;;;;23.38;10.40;;;;;;;1.73;76.67;98752.34;6172614;28;20050;-64
2020/12/04 02:21:10;;;;;;;22.02;10.32;;;;;;;1.72;77.34;98741.13;6173002;28;20050;-64
2020/12/04 02:24:12;;;;;;;23.55;10.50;;;;;;;1.82;77.01;98743.25;6172981;28;20427;-64
2020/12/04 02:27:14;;;;;;;24.73;11.52;;;;;;;1.80;77.10;98738.16;6173067;28;20419;-65
2020/12/04 02:30:19;;;;;;;26.38;11.25;;;;;;;1.86;77.67;98739.59;6172741;28;20062;-65
2020/12/04 02:33:20;;;;;;;23.17;10.75;;;;;;;1.80;77.33;98732.97;6173925;28;20047;-65
2020/12/04 02:36:22;;;;;;;26.40;12.13;;;;;;;1.86;77.19;98727.47;6177424;28;20043;-64
2020/12/04 02:39:23;;;;;;;22.33;10.93;;;;;;;1.70;77.12;98714.47;6177510;28;20054;-65
2020/12/04 02:42:23;;;;;;;23.92;11.50;;;;;;;1.83;77.47;98722.47;6177625;28;20532;-65
2020/12/04 02:45:24;;;;;;;23.17;11.05;;;;;;;1.82;76.64;98714.75;6177520;28;20046;-65
2020/12/04 02:48:25;;;;;;;24.35;11.38;;;;;;;2.05;75.90;98711.03;6177188;28;20047;-65
2020/12/04 02:51:27;;;;;;;25.95;11.30;;;;;;;1.91;76.47;98709.97;6176956;28;20183;-65
2020/12/04 02:54:28;;;;;;;25.08;11.32;;;;;;;1.91;76.90;98707.41;6177551;28;20050;-65
2020/12/04 02:57:28;;;;;;;24.95;11.68;;;;;;;1.84;78.97;98702.59;6176932;28;20050;-65
2020/12/04 03:00:29;;;;;;;25.00;11.95;;;;;;;1.87;80.23;98700.69;6177048;28;20132;-65
2020/12/04 03:03:30;;;;;;;25.20;12.00;;;;;;;1.69;80.55;98692.09;6177210;28;20443;-64
2020/12/04 03:06:32;;;;;;;26.08;11.65;;;;;;;1.67;82.80;98693.06;6172599;28;20058;-64
2020/12/04 03:09:33;;;;;;;27.58;13.02;;;;;;;1.49;83.60;98679.28;6174923;28;20095;-65
2020/12/04 03:12:33;;;;;;;26.95;12.02;;;;;;;1.46;83.50;98688.06;6177133;28;20050;-64
2020/12/04 03:15:34;;;;;;;26.33;12.20;;;;;;;1.46;85.27;98685.47;6176106;28;20420;-65
2020/12/04 03:18:35;;;;;;;29.48;12.98;;;;;;;1.48;85.39;98681.06;6176203;28;20050;-65
2020/12/04 03:21:37;;;;;;;29.00;12.65;;;;;;;1.35;87.39;98669.63;6176866;28;20051;-64
2020/12/04 03:24:38;;;;;;;27.77;12.13;;;;;;;1.39;86.84;98668.56;6173248;28;20051;-64
2020/12/04 03:27:38;;;;;;;27.05;12.35;;;;;;;1.26;87.89;98670.91;6176255;28;20050;-64
2020/12/04 03:30:39;;;;;;;28.60;13.10;;;;;;;1.24;88.76;98661.56;6176248;28;20051;-65
2020/12/04 03:33:40;;;;;;;27.38;12.68;;;;;;;1.35;88.73;98659.28;6176538;28;20436;-64
2020/12/04 03:36:42;;;;;;;30.50;13.25;;;;;;;1.37;89.86;98666.97;6175872;28;20047;-65
2020/12/04 03:39:43;;;;;;;26.73;12.00;;;;;;;1.23;89.67;98659.91;6176172;28;20066;-65
2020/12/04 03:42:43;;;;;;;28.58;13.27;;;;;;;1.30;90.38;98653.50;6176358;28;20519;-65
2020/12/04 03:45:44;;;;;;;25.63;12.60;;;;;;;1.21;90.42;98649.59;6174843;28;20058;-65
2020/12/04 03:48:45;;;;;;;24.65;12.35;;;;;;;1.21;90.67;98653.94;6175730;28;20050;-65
2020/12/04 03:51:47;;;;;;;31.00;12.70;;;;;;;1.25;90.49;98639.94;6175753;28;20444;-65
2020/12/04 03:54:48;;;;;;;29.02;13.02;;;;;;;1.18;90.10;98641.16;6176009;28;20055;-65
2020/12/04 03:57:48;;;;;;;30.02;12.43;;;;;;;1.22;90.15;98635.75;6175656;28;20510;-65
2020/12/04 04:00:49;;;;;;;34.40;13.38;;;;;;;1.19;91.19;98643.69;6175729;28;20047;-65
2020/12/04 04:03:50;;;;;;;32.30;13.52;;;;;;;1.19;91.29;98638.50;6175810;28;20077;-65
2020/12/04 04:06:52;;;;;;;29.85;13.80;;;;;;;1.15;91.53;98634.41;6175714;28;20182;-65
2020/12/04 04:09:53;;;;;;;27.25;13.32;;;;;;;1.14;92.01;98629.31;6174996;28;20066;-64
2020/12/04 04:12:54;;;;;;;29.17;14.05;;;;;;;1.12;91.59;98620.78;6175831;28;20051;-64
2020/12/04 04:15:55;;;;;;;28.67;12.82;;;;;;;0.93;92.88;98623.41;6175275;28;20090;-64
2020/12/04 04:18:56;;;;;;;36.70;14.82;;;;;;;1.04;93.00;98615.13;6174839;28;20055;-64
2020/12/04 04:21:57;;;;;;;30.02;13.63;;;;;;;0.91;92.47;98614.88;6175497;28;20423;-64
2020/12/04 04:24:58;;;;;;;31.08;14.55;;;;;;;0.83;93.04;98606.69;6175614;28;20067;-64
2020/12/04 04:27:59;;;;;;;29.02;13.70;;;;;;;0.80;93.51;98610.25;6175131;28;20057;-64
2020/12/04 04:31:00;;;;;;;30.60;15.35;;;;;;;0.78;93.97;98608.66;6174887;28;20428;-65
2020/12/04 04:34:00;;;;;;;35.38;15.23;;;;;;;0.80;94.02;98606.81;6174876;28;20047;-65
2020/12/04 04:37:02;;;;;;;30.85;15.10;;;;;;;0.80;93.82;98602.47;6174844;28;20057;-65
2020/12/04 04:40:04;;;;;;;31.15;14.68;;;;;;;0.73;93.72;98601.94;6174866;28;20065;-64
2020/12/04 04:43:06;;;;;;;30.83;14.68;;;;;;;0.79;93.67;98597.41;6174750;28;20156;-64
2020/12/04 04:46:17;;;;;;;31.02;14.57;;;;;;;0.72;94.34;98599.41;6174585;28;20067;-65
2020/12/04 04:49:27;;;;;;;37.15;15.45;;;;;;;0.76;94.66;98598.38;6174584;28;20137;-64
2020/12/04 04:52:29;;;;;;;39.13;16.05;;;;;;;0.74;95.26;98603.63;6174850;28;20043;-65
2020/12/04 04:55:30;;;;;;;39.95;15.35;;;;;;;0.73;95.06;98603.69;6174825;28;20065;-65
2020/12/04 04:58:31;;;;;;;36.13;15.13;;;;;;;0.76;94.75;98591.44;6173921;28;20050;-65
2020/12/04 05:01:33;;;;;;;32.95;15.10;;;;;;;0.76;94.97;98585.44;6174348;28;20522;-64
2020/12/04 05:04:50;;;;;;;34.33;15.80;;;;;;;0.80;94.88;98583.56;6173818;28;20050;-65
2020/12/04 05:07:51;;;;;;;35.75;15.63;;;;;;;0.73;95.55;98583.03;6172672;28;20043;-65
2020/12/04 05:11:07;;;;;;;37.88;16.70;;;;;;;0.78;95.34;98586.22;6173884;28;20050;-65
2020/12/04 05:14:13;;;;;;;37.92;16.13;;;;;;;0.78;95.27;98581.06;6174320;28;20051;-64
2020/12/04 05:17:14;;;;;;;34.95;15.88;;;;;;;0.77;96.02;98584.53;6173907;28;20137;-65
2020/12/04 05:20:15;;;;;;;38.72;16.77;;;;;;;0.79;94.67;98584.47;6173841;28;20050;-65
2020/12/04 05:23:17;;;;;;;40.00;16.70;;;;;;;0.78;95.07;98587.97;6174062;28;20055;-65
2020/12/04 05:26:28;;;;;;;34.58;15.27;;;;;;;0.80;94.42;98591.31;6173649;28;20550;-65
2020/12/04 05:29:37;;;;;;;37.70;16.17;;;;;;;0.75;94.47;98586.34;6173244;28;20405;-65
2020/12/04 05:32:38;;;;;;;35.28;15.82;;;;;;;0.82;94.34;98594.63;6162273;28;20716;-64
2020/12/04 05:35:39;;;;;;;37.25;16.20;;;;;;;0.84;93.89;98591.09;6156361;28;20129;-64
2020/12/04 05:38:50;;;;;;;36.38;15.85;;;;;;;0.86;94.14;98594.41;6172693;28;20218;-65
2020/12/04 05:41:51;;;;;;;35.47;14.93;;;;;;;0.92;93.71;98595.91;6173227;28;20060;-64
2020/12/04 05:44:54;;;;;;;38.65;16.65;;;;;;;0.85;93.66;98600.50;6173548;28;20050;-64
2020/12/04 05:47:55;;;;;;;36.28;17.20;;;;;;;0.88;94.29;98608.13;6173377;28;20061;-65
2020/12/04 05:50:56;;;;;;;32.83;14.65;;;;;;;0.90;93.25;98603.69;6173367;28;20046;-65
2020/12/04 05:53:58;;;;;;;35.60;15.48;;;;;;;0.87;93.23;98597.88;6173662;28;20105;-64
2020/12/04 05:57:02;;;;;;;35.58;16.75;;;;;;;0.92;94.03;98595.91;6172897;28;20047;-65
2020/12/04 06:00:03;;;;;;;33.05;15.00;;;;;;;0.91;93.10;98589.88;6173276;28;20054;-65
2020/12/04 06:03:05;;;;;;;35.97;15.65;;;;;;;0.94;93.82;98596.66;6172872;28;20058;-64
2020/12/04 06:06:08;;;;;;;41.42;18.25;;;;;;;0.91;93.13;98592.47;6173140;28;20419;-65
2020/12/04 06:09:10;;;;;;;32.88;14.85;;;;;;;1.02;93.70;98602.28;6174922;28;20058;-65
2020/12/04 06:12:13;;;;;;;33.33;15.55;;;;;;;1.01;93.35;98591.09;6178444;28;20050;-65
2020/12/04 06:15:20;;;;;;;37.45;16.20;;;;;;;1.01;92.93;98596.28;6178319;28;20488;-65
2020/12/04 06:18:29;;;;;;;35.13;15.30;;;;;;;1.00;92.98;98596.38;6177734;28;20428;-64
2020/12/04 06:21:43;;;;;;;33.67;15.75;;;;;;;1.04;92.39;98599.63;6177458;28;20055;-64
2020/12/04 06:25:03;;;;;;;33.35;15.50;;;;;;;1.01;92.08;98593.69;6177566;28;20692;-65
2020/12/04 06:28:15;;;;;;;30.15;14.68;;;;;;;1.04;91.98;98599.63;6177402;28;20047;-64
2020/12/04 06:31:16;;;;;;;36.03;15.05;;;;;;;1.10;91.86;98602.75;6177546;28;20385;-65
2020/12/04 06:34:18;;;;;;;32.05;14.35;;;;;;;1.08;91.38;98599.38;6177371;28;20051;-65
2020/12/04 06:37:33;;;;;;;40.00;15.57;;;;;;;1.10;92.15;98601.91;6177580;28;20061;-64
2020/12/04 06:40:35;;;;;;;29.92;14.57;;;;;;;1.09;92.28;98605.41;6177218;28;20054;-65
2020/12/04 06:43:37;;;;;;;31.00;14.88;;;;;;;1.11;92.08;98608.75;6177662;28;20055;-65
2020/12/04 06:46:42;;;;;;;37.13;15.57;;;;;;;1.14;92.42;98600.84;6177235;28;20047;-65
2020/12/04 06:49:43;;;;;;;34.88;15.68;;;;;;;1.19;91.68;98604.88;6176190;28;20157;-65
2020/12/04 06:52:44;;;;;;;34.05;15.35;;;;;;;1.19;91.75;98607.47;6176949;28;20051;-65
2020/12/04 06:55:48;;;;;;;39.22;16.40;;;;;;;1.20;91.64;98611.72;6177390;28;20125;-65
2020/12/04 06:58:49;;;;;;;31.60;14.77;;;;;;;1.19;91.87;98615.22;6167981;28;20051;-65
2020/12/04 07:01:51;;;;;;;33.00;13.18;;;;;;;1.23;90.63;98615.91;6176685;28;20057;-65
2020/12/04 07:04:53;;;;;;;31.95;14.07;;;;;;;1.20;91.41;98621.25;6176884;28;20042;-65
2020/12/04 07:08:04;;;;;;;32.20;14.57;;;;;;;1.22;90.99;98625.41;6176737;28;20051;-64
2020/12/04 07:11:06;;;;;;;37.78;16.10;;;;;;;1.18;91.53;98630.81;6176276;28;20066;-65
2020/12/04 07:14:07;;;;;;;33.95;15.23;;;;;;;1.21;91.87;98631.50;6176849;28;20051;-65
2020/12/04 07:17:08;;;;;;;35.15;15.38;;;;;;;1.25;90.79;98635.63;6176420;28;20057;-65
2020/12/04 07:20:09;;;;;;;36.00;15.05;;;;;;;1.32;91.01;98636.16;6176038;28;20129;-65
2020/12/04 07:23:10;;;;;;;32.55;14.40;;;;;;;1.26;90.78;98647.63;6176681;28;20059;-65
2020/12/04 07:26:17;;;;;;;34.60;15.95;;;;;;;1.25;91.47;98643.38;6176303;28;20055;-65
2020/12/04 07:29:18;;;;;;;31.80;15.10;;;;;;;1.35;90.98;98645.50;6176264;28;20078;-64
2020/12/04 07:32:20;;;;;;;33.83;15.65;;;;;;;1.29;90.99;98645.81;6176071;28;20515;-63
2020/12/04 07:35:23;;;;;;;32.88;15.20;;;;;;;1.34;91.14;98647.25;6176660;28;20540;-64
2020/12/04 07:38:24;;;;;;;31.02;15.18;;;;;;;1.30;91.21;98652.66;6176043;28;20058;-64
2020/12/04 07:41:32;;;;;;;34.85;15.30;;;;;;;1.37;90.74;98666.97;6174913;28;20491;-64
2020/12/04 07:44:35;;;;;;;30.85;13.23;;;;;;;1.38;90.91;98660.88;6174153;28;20055;-64
2020/12/04 07:47:41;;;;;;;37.55;14.48;;;;;;;1.42;90.41;98665.00;6175618;28;20069;-64
2020/12/04 07:50:42;;;;;;;37.90;15.02;;;;;;;1.42;90.59;98660.66;6175471;28;20059;-64
2020/12/04 07:53:43;;;;;;;36.00;16.33;;;;;;;1.41;91.51;98677.09;6175833;28;20062;-63
2020/12/04 07:56:51;;;;;;;40.88;16.05;;;;;;;1.39;91.36;98668.56;6175689;28;20042;-63
2020/12/04 07:59:55;;;;;;;31.05;14.15;;;;;;;1.48;91.13;98675.03;6168047;28;20057;-64
2020/12/04 08:03:01;;;;;;;35.47;15.40;;;;;;;1.49;90.39;98671.53;6175482;28;20542;-64
2020/12/04 08:06:07;;;;;;;28.75;14.38;;;;;;;1.48;90.73;98680.22;6174810;28;20054;-64
2020/12/04 08:09:13;;;;;;;34.13;15.70;;;;;;;1.52;91.01;98679.16;6169239;28;20562;-63
2020/12/04 08:12:16;;;;;;;32.83;14.88;;;;;;;1.55;91.31;98676.44;6175643;28;20420;-64
2020/12/04 08:15:18;;;;;;;37.25;15.77;;;;;;;1.59;91.63;98683.13;6175233;28;20447;-64
2020/12/04 08:18:19;;;;;;;41.67;15.50;;;;;;;1.73;89.49;98683.25;6175130;28;20058;-66
2020/12/04 08:21:20;;;;;;;32.33;14.27;;;;;;;1.74;89.79;98690.13;6174769;28;20415;-64
2020/12/04 08:24:26;;;;;;;34.75;15.30;;;;;;;1.70;90.64;98688.59;6175255;28;20062;-63
2020/12/04 08:27:27;;;;;;;40.08;16.33;;;;;;;1.76;90.27;98690.84;6174841;28;20452;-64
2020/12/04 08:30:29;;;;;;;33.35;15.10;;;;;;;1.75;91.12;98689.19;6174595;28;20495;-72
2020/12/04 08:33:30;;;;;;;36.80;16.33;;;;;;;1.78;91.17;98694.22;6174267;28;20057;-64
2020/12/04 08:36:31;;;;;;;40.10;17.25;;;;;;;1.82;92.02;98696.63;6174850;28;20051;-64
2020/12/04 08:39:44;;;;;;;39.30;16.75;;;;;;;1.84;92.36;98694.81;6174207;28;20057;-64
2020/12/04 08:42:46;;;;;;;40.00;17.20;;;;;;;1.84;93.20;98684.47;6174686;28;20046;-64
2020/12/04 08:45:49;;;;;;;36.45;16.60;;;;;;;1.87;93.41;98687.75;6174545;28;20057;-64
2020/12/04 08:48:49;;;;;;;34.25;14.32;;;;;;;1.87;93.37;98689.50;6173972;28;20419;-64
2020/12/04 08:51:51;;;;;;;44.65;17.50;;;;;;;1.94;93.78;98686.50;6174586;28;20054;-64
2020/12/04 08:54:52;;;;;;;39.30;17.48;;;;;;;1.88;93.61;98696.34;6174731;28;20109;-64
2020/12/04 08:57:55;;;;;;;40.13;16.90;;;;;;;1.86;94.29;98698.16;6174062;28;20058;-64
2020/12/04 09:00:58;;;;;;;39.60;17.38;;;;;;;1.95;94.72;98697.69;6173808;28;20051;-65
2020/12/04 09:03:59;;;;;;;39.17;17.42;;;;;;;1.91;95.87;98688.44;6174118;28;20101;-64
2020/12/04 09:06:59;;;;;;;39.25;18.05;;;;;;;1.94;95.40;98696.84;6169577;28;20042;-64
2020/12/04 09:10:01;;;;;;;44.05;17.05;;;;;;;2.00;95.90;98696.56;6173385;28;20051;-64
2020/12/04 09:13:03;;;;;;;43.72;17.10;;;;;;;2.07;96.52;98702.25;6174217;28;20076;-65
2020/12/04 09:16:04;;;;;;;38.53;15.93;;;;;;;2.16;96.71;98699.19;6173640;28;20083;-64
2020/12/04 09:19:05;;;;;;;33.58;16.10;;;;;;;2.27;97.23;98688.25;6173765;28;20070;-64
2020/12/04 09:22:06;;;;;;;31.30;13.63;;;;;;;2.54;98.15;98683.34;6171243;28;20043;-64
2020/12/04 09:25:09;;;;;;;31.35;12.98;;;;;;;2.83;97.75;98676.59;6173681;28;20715;-64
2020/12/04 09:28:10;;;;;;;30.48;12.77;;;;;;;2.92;96.95;98681.28;6173451;28;20429;-64
2020/12/04 09:31:11;;;;;;;27.38;11.45;;;;;;;3.15;95.36;98684.34;6173326;28;20051;-65
2020/12/04 09:34:12;;;;;;;27.75;11.15;;;;;;;3.25;94.33;98686.34;6173749;28;20058;-64
2020/12/04 09:37:22;;;;;;;27.75;12.25;;;;;;;3.18;95.21;98681.56;6173240;28;20059;-65
2020/12/04 09:40:23;;;;;;;23.15;10.63;;;;;;;3.24;95.10;98684.69;6172977;28;20380;-64
2020/12/04 09:43:24;;;;;;;26.27;10.85;;;;;;;3.41;95.42;98685.50;6173271;28;20065;-64
2020/12/04 09:46:25;;;;;;;25.90;10.35;;;;;;;3.56;94.71;98688.03;6171877;28;20632;-64
2020/12/04 09:49:26;;;;;;;25.15;9.60;;;;;;;3.72;93.65;98687.13;6172616;28;20053;-65
2020/12/04 09:52:27;;;;;;;19.17;8.40;;;;;;;3.91;92.00;98690.34;6173386;28;20061;-65
2020/12/04 09:55:28;;;;;;;18.88;8.80;;;;;;;3.85;91.86;98684.66;6173533;28;20052;-64
2020/12/04 09:58:29;;;;;;;19.52;9.25;;;;;;;3.94;92.24;98684.09;6172721;28;20078;-64
2020/12/04 10:01:30;;;;;;;20.67;8.93;;;;;;;3.93;92.13;98688.47;6173072;28;20051;-65
2020/12/04 10:04:32;;;;;;;18.73;9.05;;;;;;;3.94;92.11;98684.94;6172760;28;20424;-64
2020/12/04 10:07:33;;;;;;;19.75;9.00;;;;;;;4.05;92.25;98685.16;6170773;28;20046;-65
2020/12/04 10:10:33;;;;;;;20.80;8.95;;;;;;;4.18;91.94;98682.66;6172375;28;20100;-65
2020/12/04 10:13:36;;;;;;;23.33;9.20;;;;;;;4.18;91.38;98682.66;6173345;28;20062;-64
2020/12/04 10:16:37;;;;;;;17.20;7.97;;;;;;;4.34;90.50;98674.75;6172467;28;20098;-65
2020/12/04 10:19:37;;;;;;;17.33;8.25;;;;;;;4.29;90.88;98672.41;6172545;28;20460;-64
2020/12/04 10:22:38;;;;;;;16.38;7.65;;;;;;;4.35;90.37;98680.78;6172989;28;20194;-65
2020/12/04 10:25:40;;;;;;;21.30;8.20;;;;;;;4.56;90.02;98680.28;6172951;28;20105;-64
2020/12/04 10:28:42;;;;;;;18.10;6.57;;;;;;;4.56;89.93;98689.88;6172358;28;20054;-65
2020/12/04 10:31:43;;;;;;;15.10;6.88;;;;;;;4.48;89.59;98695.53;6172872;28;20420;-64
2020/12/04 10:34:44;;;;;;;14.50;6.80;;;;;;;4.57;89.94;98692.38;6172643;28;20050;-65
2020/12/04 10:37:45;;;;;;;16.67;7.00;;;;;;;4.74;89.25;98678.31;6172555;28;20559;-65
2020/12/04 10:40:46;;;;;;;17.20;7.18;;;;;;;4.75;89.43;98666.13;6172508;28;20073;-66
2020/12/04 10:43:48;;;;;;;15.38;6.65;;;;;;;4.91;88.10;98673.81;6172471;28;20061;-65
2020/12/04 10:46:49;;;;;;;13.63;6.90;;;;;;;4.86;88.09;98689.72;6172724;28;20050;-64
2020/12/04 10:49:50;;;;;;;22.23;7.90;;;;;;;5.01;88.06;98690.53;6172193;28;20423;-64
2020/12/04 10:52:51;;;;;;;20.30;8.15;;;;;;;4.96;88.55;98676.97;6172780;28;20054;-65
2020/12/04 10:55:52;;;;;;;15.30;6.70;;;;;;;4.93;88.63;98691.00;6175659;28;20054;-64
2020/12/04 10:58:54;;;;;;;17.63;6.72;;;;;;;4.92;88.93;98689.34;6176435;28;20053;-64
2020/12/04 11:01:57;;;;;;;15.55;7.63;;;;;;;5.05;87.77;98682.41;6177381;28;20042;-65
2020/12/04 11:08:17;;;;;;;18.17;7.17;;;;;;;5.07;87.53;98697.94;6167679;28;20043;-65
2020/12/04 11:11:20;;;;;;;18.48;7.60;;;;;;;5.14;87.63;98699.22;6172556;28;20309;-65
2020/12/04 11:14:22;;;;;;;19.15;7.95;;;;;;;5.15;87.43;98703.50;6176720;28;20047;-65
2020/12/04 11:17:22;;;;;;;13.68;7.05;;;;;;;5.08;87.78;98713.44;6176395;28;20046;-65
2020/12/04 11:20:24;;;;;;;18.92;8.43;;;;;;;5.17;87.56;98719.84;6176230;28;20538;-65
2020/12/04 11:23:25;;;;;;;21.52;7.90;;;;;;;5.34;86.31;98719.59;6176557;28;20547;-65
2020/12/04 11:26:26;;;;;;;21.75;8.55;;;;;;;5.35;87.02;98728.25;6176314;28;20057;-65
2020/12/04 11:29:28;;;;;;;21.98;8.05;;;;;;;5.51;86.60;98723.72;6175618;28;20133;-65
2020/12/04 11:32:29;;;;;;;19.88;8.05;;;;;;;5.47;86.22;98713.59;6176261;28;20055;-64
2020/12/04 11:35:29;;;;;;;19.60;7.65;;;;;;;5.46;85.89;98723.19;6169254;28;20062;-65
2020/12/04 11:38:30;;;;;;;19.27;7.50;;;;;;;5.48;86.15;98717.88;6175744;28;20047;-65
2020/12/04 11:41:31;;;;;;;19.40;7.95;;;;;;;5.53;85.45;98708.81;6175550;28;20055;-64
2020/12/04 11:44:33;;;;;;;21.27;8.00;;;;;;;5.47;86.37;98713.59;6176099;28;20046;-65
2020/12/04 11:47:37;;;;;;;18.45;8.05;;;;;;;5.45;86.23;98710.25;6175824;28;20091;-65
2020/12/04 11:50:38;;;;;;;21.88;8.63;;;;;;;5.39;86.42;98729.72;6175477;28;20050;-65
2020/12/04 11:53:39;;;;;;;25.52;8.65;;;;;;;5.40;85.65;98738.38;6175754;28;20138;-65
2020/12/04 11:56:39;;;;;;;26.20;8.73;;;;;;;5.34;85.86;98737.00;6175631;28;20101;-65
2020/12/04 11:59:41;;;;;;;28.45;9.05;;;;;;;5.33;85.77;98730.13;6175490;28;20124;-68
2020/12/04 12:02:42;;;;;;;23.70;9.15;;;;;;;5.37;85.66;98726.41;6175431;28;20050;-65
2020/12/04 12:05:43;;;;;;;24.35;8.32;;;;;;;5.29;85.84;98729.47;6175117;28;20263;-65
2020/12/04 12:08:44;;;;;;;27.55;9.63;;;;;;;5.27;85.65;98736.56;6174628;28;20424;-65
2020/12/04 12:11:45;;;;;;;23.45;8.73;;;;;;;5.41;85.64;98733.06;6175575;28;20047;-65
2020/12/04 12:14:46;;;;;;;26.05;10.23;;;;;;;5.34;85.01;98739.59;6175711;28;20490;-65
2020/12/04 12:17:47;;;;;;;24.67;9.77;;;;;;;5.49;84.72;98732.56;6175004;28;20047;-65
2020/12/04 12:20:49;;;;;;;21.35;9.23;;;;;;;5.54;84.17;98728.75;6174725;28;20058;-65
2020/12/04 12:23:50;;;;;;;23.40;9.43;;;;;;;5.37;84.82;98749.84;6169635;28;20568;-64
2020/12/04 12:26:50;;;;;;;23.33;9.50;;;;;;;5.38;85.12;98741.09;6175050;28;20106;-64
2020/12/04 12:29:57;;;;;;;24.83;9.02;;;;;;;5.34;85.03;98731.78;6174464;28;20051;-64
2020/12/04 12:32:57;;;;;;;28.40;10.07;;;;;;;5.35;85.14;98720.44;6168509;28;20053;-64
2020/12/04 12:35:59;;;;;;;26.83;10.15;;;;;;;5.39;84.46;98724.50;6174734;28;20133;-65
2020/12/04 12:39:00;;;;;;;24.05;9.63;;;;;;;5.45;83.92;98731.94;6174240;28;20047;-65
2020/12/04 12:42:00;;;;;;;25.08;10.13;;;;;;;5.38;84.53;98730.66;6174784;28;20459;-65
2020/12/04 12:45:02;;;;;;;25.00;9.02;;;;;;;5.37;84.14;98726.41;6174642;28;20050;-65
2020/12/04 12:48:03;;;;;;;21.60;8.73;;;;;;;5.43;84.64;98728.59;6174546;28;20058;-65
2020/12/04 12:51:04;;;;;;;29.63;9.18;;;;;;;5.44;84.39;98727.66;6172982;28;20599;-65
2020/12/04 12:54:05;;;;;;;21.83;8.05;;;;;;;5.45;84.40;98734.56;6174369;28;20427;-65
2020/12/04 12:57:06;;;;;;;23.05;8.77;;;;;;;5.47;84.27;98721.41;6174279;28;20047;-65
2020/12/04 13:00:08;;;;;;;23.35;8.88;;;;;;;5.55;84.09;98740.00;6174098;28;20091;-65
2020/12/04 13:03:09;;;;;;;27.15;8.13;;;;;;;5.58;83.58;98732.78;6174172;28;20065;-65
2020/12/04 13:06:10;;;;;;;26.25;9.38;;;;;;;5.53;83.99;98739.25;6174080;28;20423;-66
2020/12/04 13:09:11;;;;;;;27.88;9.52;;;;;;;5.48;85.19;98731.72;6173782;28;20058;-66
2020/12/04 13:12:12;;;;;;;25.23;10.35;;;;;;;5.64;83.78;98723.75;6174215;28;20436;-66
2020/12/04 13:15:14;;;;;;;26.98;9.55;;;;;;;5.56;83.83;98728.63;6174362;28;20253;-66
2020/12/04 13:18:15;;;;;;;29.27;10.02;;;;;;;5.53;84.20;98741.84;6173498;28;20047;-66
2020/12/04 13:21:16;;;;;;;38.47;10.85;;;;;;;5.54;83.00;98746.97;6173566;28;20050;-66
2020/12/04 13:24:17;;;;;;;33.72;10.07;;;;;;;5.48;83.61;98746.53;6173908;28;20523;-66
2020/12/04 13:27:18;;;;;;;29.23;9.43;;;;;;;5.48;82.89;98751.72;6173635;28;20051;-66
2020/12/04 13:30:19;;;;;;;22.42;9.23;;;;;;;5.48;83.95;98752.56;6180205;28;20051;-66
2020/12/04 13:33:20;;;;;;;29.35;9.18;;;;;;;5.41;83.64;98740.88;6173691;28;20055;-66
2020/12/04 13:36:21;;;;;;;29.40;9.73;;;;;;;5.44;83.10;98732.84;6187565;28;20085;-66
2020/12/04 13:39:22;;;;;;;26.30;8.50;;;;;;;5.45;82.39;98725.88;6191190;28;20046;-66
2020/12/04 13:42:23;;;;;;;31.13;9.90;;;;;;;5.35;82.24;98731.69;6170462;28;20051;-65
2020/12/04 13:45:25;;;;;;;30.05;9.57;;;;;;;5.24;83.17;98726.34;6170612;28;20734;-65
2020/12/04 13:48:26;;;;;;;23.80;9.02;;;;;;;5.25;82.61;98728.00;6173227;28;20054;-65
2020/12/04 13:51:31;;;;;;;21.13;8.32;;;;;;;5.16;82.65;98731.19;6172882;28;20051;-66
2020/12/04 13:54:32;;;;;;;30.10;9.10;;;;;;;5.15;81.68;98729.53;6150513;28;20054;-66
2020/12/04 13:57:32;;;;;;;25.00;8.25;;;;;;;5.08;82.73;98738.66;6149282;28;20435;-66
2020/12/04 14:00:34;;;;;;;27.75;9.10;;;;;;;4.97;83.03;98735.91;6157401;28;20423;-66
2020/12/04 14:03:35;;;;;;;27.98;8.23;;;;;;;4.90;83.10;98725.03;6173202;28;20070;-66
2020/12/04 14:06:36;;;;;;;26.55;9.07;;;;;;;4.89;82.09;98725.97;6172936;28;20055;-66
2020/12/04 14:09:37;;;;;;;27.90;9.25;;;;;;;4.88;82.12;98732.09;6172956;28;20050;-65
2020/12/04 14:12:38;;;;;;;26.20;8.68;;;;;;;4.78;82.82;98744.03;6173036;28;20427;-65